sensor_id;sensor_type;location;lat;lon;timestamp;P1;durP1;ratioP1;P2;durP2;ratioP2
69459;SDS011;57182;55.712;37.612;2022-09-09T00:04:43;2.10;;;1.73;;
69459;SDS011;57182;55.712;37.612;2022-09-09T00:16:27;2.97;;;1.75;;
69459;SDS011;57182;55.712;37.612;2022-09-09T00:21:58;4.75;;;1.70;;
69459;SDS011;57182;55.712;37.612;2022-09-09T00:24:53;1.70;;;1.60;;
69459;SDS011;57182;55.712;37.612;2022-09-09T00:27:33;2.20;;;1.70;;
69459;SDS011;57182;55.712;37.612;2022-09-09T00:30:33;2.65;;;1.83;;
69459;SDS011;57182;55.712;37.612;2022-09-09T00:33:12;2.42;;;2.03;;
69459;SDS011;57182;55.712;37.612;2022-09-09T00:35:49;3.72;;;2.10;;
69459;SDS011;57182;55.712;37.612;2022-09-09T00:44:00;3.40;;;2.28;;
69459;SDS011;57182;55.712;37.612;2022-09-09T00:58:13;2.50;;;1.40;;
69459;SDS011;57182;55.712;37.612;2022-09-09T01:00:46;3.17;;;1.90;;
69459;SDS011;57182;55.712;37.612;2022-09-09T01:03:22;3.15;;;2.25;;
69459;SDS011;57182;55.712;37.612;2022-09-09T01:06:11;3.47;;;2.20;;
69459;SDS011;57182;55.712;37.612;2022-09-09T01:09:11;2.88;;;1.92;;
69459;SDS011;57182;55.712;37.612;2022-09-09T01:12:23;3.75;;;2.05;;
69459;SDS011;57182;55.712;37.612;2022-09-09T01:15:03;3.17;;;1.85;;
69459;SDS011;57182;55.712;37.612;2022-09-09T01:20:39;2.65;;;2.03;;
69459;SDS011;57182;55.712;37.612;2022-09-09T01:26:17;3.28;;;1.85;;
69459;SDS011;57182;55.712;37.612;2022-09-09T01:29:24;2.75;;;1.85;;
69459;SDS011;57182;55.712;37.612;2022-09-09T01:35:55;3.22;;;2.00;;
69459;SDS011;57182;55.712;37.612;2022-09-09T01:38:35;3.95;;;2.17;;
69459;SDS011;57182;55.712;37.612;2022-09-09T01:41:06;7.15;;;2.10;;
69459;SDS011;57182;55.712;37.612;2022-09-09T01:43:49;5.55;;;2.33;;
69459;SDS011;57182;55.712;37.612;2022-09-09T01:46:21;7.05;;;2.45;;
69459;SDS011;57182;55.712;37.612;2022-09-09T01:48:53;3.15;;;2.08;;
69459;SDS011;57182;55.712;37.612;2022-09-09T01:51:27;3.85;;;2.45;;
69459;SDS011;57182;55.712;37.612;2022-09-09T01:53:58;2.75;;;2.13;;
69459;SDS011;57182;55.712;37.612;2022-09-09T01:56:47;2.88;;;2.20;;
69459;SDS011;57182;55.712;37.612;2022-09-09T01:59:49;5.30;;;2.30;;
69459;SDS011;57182;55.712;37.612;2022-09-09T02:08:53;3.60;;;2.38;;
69459;SDS011;57182;55.712;37.612;2022-09-09T02:11:25;3.95;;;2.05;;
69459;SDS011;57182;55.712;37.612;2022-09-09T02:14:10;5.93;;;2.78;;
69459;SDS011;57182;55.712;37.612;2022-09-09T02:17:00;3.58;;;2.15;;
69459;SDS011;57182;55.712;37.612;2022-09-09T02:20:05;5.00;;;2.15;;
69459;SDS011;57182;55.712;37.612;2022-09-09T02:22:44;3.95;;;2.20;;
69459;SDS011;57182;55.712;37.612;2022-09-09T02:25:17;3.05;;;2.35;;
69459;SDS011;57182;55.712;37.612;2022-09-09T02:31:49;3.90;;;2.13;;
69459;SDS011;57182;55.712;37.612;2022-09-09T02:34:25;2.60;;;2.03;;
69459;SDS011;57182;55.712;37.612;2022-09-09T02:37:00;3.33;;;2.17;;
69459;SDS011;57182;55.712;37.612;2022-09-09T02:43:19;3.03;;;2.22;;
69459;SDS011;57182;55.712;37.612;2022-09-09T02:49:19;4.35;;;2.22;;
69459;SDS011;57182;55.712;37.612;2022-09-09T02:54:39;2.47;;;1.92;;
69459;SDS011;57182;55.712;37.612;2022-09-09T03:00:04;4.70;;;2.10;;
69459;SDS011;57182;55.712;37.612;2022-09-09T03:02:35;3.88;;;1.75;;
69459;SDS011;57182;55.712;37.612;2022-09-09T03:05:33;3.85;;;2.30;;
69459;SDS011;57182;55.712;37.612;2022-09-09T03:08:03;4.57;;;2.35;;
69459;SDS011;57182;55.712;37.612;2022-09-09T03:10:32;4.85;;;2.28;;
69459;SDS011;57182;55.712;37.612;2022-09-09T03:13:05;4.45;;;2.28;;
69459;SDS011;57182;55.712;37.612;2022-09-09T03:15:37;3.13;;;2.33;;
69459;SDS011;57182;55.712;37.612;2022-09-09T03:18:16;5.03;;;2.72;;
69459;SDS011;57182;55.712;37.612;2022-09-09T03:20:50;3.30;;;2.63;;
69459;SDS011;57182;55.712;37.612;2022-09-09T03:23:24;4.75;;;2.80;;
69459;SDS011;57182;55.712;37.612;2022-09-09T03:25:55;7.03;;;2.53;;
69459;SDS011;57182;55.712;37.612;2022-09-09T03:28:58;4.95;;;2.97;;
69459;SDS011;57182;55.712;37.612;2022-09-09T03:31:29;3.72;;;2.83;;
69459;SDS011;57182;55.712;37.612;2022-09-09T03:33:58;3.85;;;2.67;;
69459;SDS011;57182;55.712;37.612;2022-09-09T03:36:30;5.15;;;3.00;;
69459;SDS011;57182;55.712;37.612;2022-09-09T03:39:00;5.65;;;3.05;;
69459;SDS011;57182;55.712;37.612;2022-09-09T03:41:41;6.22;;;3.00;;
69459;SDS011;57182;55.712;37.612;2022-09-09T03:44:09;7.18;;;3.45;;
69459;SDS011;57182;55.712;37.612;2022-09-09T03:46:39;6.43;;;3.55;;
69459;SDS011;57182;55.712;37.612;2022-09-09T03:49:10;7.63;;;3.25;;
69459;SDS011;57182;55.712;37.612;2022-09-09T03:51:39;6.60;;;2.80;;
69459;SDS011;57182;55.712;37.612;2022-09-09T03:54:16;5.65;;;3.20;;
69459;SDS011;57182;55.712;37.612;2022-09-09T03:56:46;5.97;;;3.70;;
69459;SDS011;57182;55.712;37.612;2022-09-09T04:01:56;4.90;;;2.83;;
69459;SDS011;57182;55.712;37.612;2022-09-09T04:04:28;3.90;;;2.88;;
69459;SDS011;57182;55.712;37.612;2022-09-09T04:07:02;5.50;;;2.60;;
69459;SDS011;57182;55.712;37.612;2022-09-09T04:09:50;3.33;;;2.50;;
69459;SDS011;57182;55.712;37.612;2022-09-09T04:12:25;5.60;;;2.50;;
69459;SDS011;57182;55.712;37.612;2022-09-09T04:14:53;5.47;;;2.33;;
69459;SDS011;57182;55.712;37.612;2022-09-09T04:17:23;4.78;;;2.40;;
69459;SDS011;57182;55.712;37.612;2022-09-09T04:19:52;3.55;;;2.50;;
69459;SDS011;57182;55.712;37.612;2022-09-09T04:22:26;7.38;;;2.78;;
69459;SDS011;57182;55.712;37.612;2022-09-09T04:25:00;6.35;;;2.97;;
69459;SDS011;57182;55.712;37.612;2022-09-09T04:27:31;18.40;;;4.57;;
69459;SDS011;57182;55.712;37.612;2022-09-09T04:30:29;4.60;;;2.35;;
69459;SDS011;57182;55.712;37.612;2022-09-09T04:33:11;3.15;;;2.40;;
69459;SDS011;57182;55.712;37.612;2022-09-09T04:35:53;6.65;;;2.70;;
69459;SDS011;57182;55.712;37.612;2022-09-09T04:38:23;4.20;;;2.63;;
69459;SDS011;57182;55.712;37.612;2022-09-09T04:40:58;3.08;;;2.10;;
69459;SDS011;57182;55.712;37.612;2022-09-09T04:43:27;4.55;;;2.30;;
69459;SDS011;57182;55.712;37.612;2022-09-09T04:46:01;3.05;;;2.22;;
69459;SDS011;57182;55.712;37.612;2022-09-09T04:48:38;3.45;;;2.35;;
69459;SDS011;57182;55.712;37.612;2022-09-09T04:51:20;5.45;;;2.17;;
69459;SDS011;57182;55.712;37.612;2022-09-09T04:54:57;2.55;;;2.35;;
69459;SDS011;57182;55.712;37.612;2022-09-09T04:58:38;2.47;;;2.08;;
69459;SDS011;57182;55.712;37.612;2022-09-09T05:01:16;4.45;;;2.00;;
69459;SDS011;57182;55.712;37.612;2022-09-09T05:03:48;3.08;;;1.80;;
69459;SDS011;57182;55.712;37.612;2022-09-09T05:06:21;4.57;;;1.80;;
69459;SDS011;57182;55.712;37.612;2022-09-09T05:09:13;4.25;;;1.77;;
69459;SDS011;57182;55.712;37.612;2022-09-09T05:11:46;2.40;;;1.25;;
69459;SDS011;57182;55.712;37.612;2022-09-09T05:14:23;3.67;;;1.40;;
69459;SDS011;57182;55.712;37.612;2022-09-09T05:17:09;3.15;;;1.30;;
69459;SDS011;57182;55.712;37.612;2022-09-09T05:19:52;6.38;;;1.50;;
69459;SDS011;57182;55.712;37.612;2022-09-09T05:22:28;3.17;;;1.50;;
69459;SDS011;57182;55.712;37.612;2022-09-09T05:25:22;3.90;;;1.30;;
69459;SDS011;57182;55.712;37.612;2022-09-09T05:27:55;2.53;;;1.20;;
69459;SDS011;57182;55.712;37.612;2022-09-09T05:30:28;6.70;;;1.52;;
69459;SDS011;57182;55.712;37.612;2022-09-09T05:33:09;4.65;;;1.63;;
69459;SDS011;57182;55.712;37.612;2022-09-09T05:35:43;2.17;;;1.20;;
69459;SDS011;57182;55.712;37.612;2022-09-09T05:38:15;7.25;;;2.00;;
69459;SDS011;57182;55.712;37.612;2022-09-09T05:40:48;2.13;;;1.17;;
69459;SDS011;57182;55.712;37.612;2022-09-09T05:43:20;4.43;;;1.40;;
69459;SDS011;57182;55.712;37.612;2022-09-09T05:45:47;3.45;;;1.38;;
69459;SDS011;57182;55.712;37.612;2022-09-09T05:48:18;10.60;;;1.45;;
69459;SDS011;57182;55.712;37.612;2022-09-09T05:50:52;16.70;;;3.50;;
69459;SDS011;57182;55.712;37.612;2022-09-09T05:53:23;7.50;;;1.52;;
69459;SDS011;57182;55.712;37.612;2022-09-09T05:55:57;5.97;;;1.40;;
69459;SDS011;57182;55.712;37.612;2022-09-09T05:59:16;5.47;;;1.48;;
69459;SDS011;57182;55.712;37.612;2022-09-09T06:01:49;10.38;;;5.25;;
69459;SDS011;57182;55.712;37.612;2022-09-09T06:04:36;3.67;;;1.13;;
69459;SDS011;57182;55.712;37.612;2022-09-09T06:07:16;1.67;;;1.30;;
69459;SDS011;57182;55.712;37.612;2022-09-09T06:09:48;2.72;;;1.10;;
69459;SDS011;57182;55.712;37.612;2022-09-09T06:12:35;2.15;;;1.10;;
69459;SDS011;57182;55.712;37.612;2022-09-09T06:15:08;3.08;;;1.02;;
69459;SDS011;57182;55.712;37.612;2022-09-09T06:17:36;2.20;;;0.93;;
69459;SDS011;57182;55.712;37.612;2022-09-09T06:20:13;7.35;;;1.13;;
69459;SDS011;57182;55.712;37.612;2022-09-09T06:22:41;4.45;;;1.05;;
69459;SDS011;57182;55.712;37.612;2022-09-09T06:25:12;6.30;;;1.25;;
69459;SDS011;57182;55.712;37.612;2022-09-09T06:28:15;2.20;;;0.80;;
69459;SDS011;57182;55.712;37.612;2022-09-09T06:30:43;2.00;;;1.00;;
69459;SDS011;57182;55.712;37.612;2022-09-09T06:33:11;2.63;;;0.93;;
69459;SDS011;57182;55.712;37.612;2022-09-09T06:35:39;5.57;;;1.42;;
69459;SDS011;57182;55.712;37.612;2022-09-09T06:38:14;4.55;;;1.27;;
69459;SDS011;57182;55.712;37.612;2022-09-09T06:40:54;1.73;;;1.08;;
69459;SDS011;57182;55.712;37.612;2022-09-09T06:43:23;2.20;;;1.10;;
69459;SDS011;57182;55.712;37.612;2022-09-09T06:45:59;1.73;;;1.00;;
69459;SDS011;57182;55.712;37.612;2022-09-09T06:48:29;4.00;;;1.10;;
69459;SDS011;57182;55.712;37.612;2022-09-09T06:51:09;2.42;;;1.05;;
69459;SDS011;57182;55.712;37.612;2022-09-09T06:53:47;7.45;;;1.30;;
69459;SDS011;57182;55.712;37.612;2022-09-09T06:59:02;4.22;;;1.73;;
69459;SDS011;57182;55.712;37.612;2022-09-09T07:01:33;2.40;;;1.50;;
69459;SDS011;57182;55.712;37.612;2022-09-09T07:04:05;2.92;;;1.10;;
69459;SDS011;57182;55.712;37.612;2022-09-09T07:06:36;2.03;;;1.42;;
69459;SDS011;57182;55.712;37.612;2022-09-09T07:09:09;3.83;;;1.05;;
69459;SDS011;57182;55.712;37.612;2022-09-09T07:11:47;10.63;;;1.00;;
69459;SDS011;57182;55.712;37.612;2022-09-09T07:14:18;2.25;;;0.93;;
69459;SDS011;57182;55.712;37.612;2022-09-09T07:16:51;3.42;;;1.00;;
69459;SDS011;57182;55.712;37.612;2022-09-09T07:19:26;2.38;;;0.93;;
69459;SDS011;57182;55.712;37.612;2022-09-09T07:21:56;3.70;;;1.02;;
69459;SDS011;57182;55.712;37.612;2022-09-09T07:24:34;2.40;;;0.98;;
69459;SDS011;57182;55.712;37.612;2022-09-09T07:27:02;2.83;;;1.65;;
69459;SDS011;57182;55.712;37.612;2022-09-09T07:29:34;4.97;;;0.82;;
69459;SDS011;57182;55.712;37.612;2022-09-09T07:32:02;3.83;;;1.05;;
69459;SDS011;57182;55.712;37.612;2022-09-09T07:34:38;4.45;;;0.88;;
69459;SDS011;57182;55.712;37.612;2022-09-09T07:37:06;3.13;;;0.90;;
69459;SDS011;57182;55.712;37.612;2022-09-09T07:39:35;1.17;;;0.80;;
69459;SDS011;57182;55.712;37.612;2022-09-09T07:42:05;2.38;;;0.70;;
69459;SDS011;57182;55.712;37.612;2022-09-09T07:44:38;0.68;;;0.60;;
69459;SDS011;57182;55.712;37.612;2022-09-09T07:47:12;6.25;;;1.00;;
69459;SDS011;57182;55.712;37.612;2022-09-09T07:49:47;2.90;;;0.70;;
69459;SDS011;57182;55.712;37.612;2022-09-09T07:52:24;2.80;;;0.80;;
69459;SDS011;57182;55.712;37.612;2022-09-09T07:54:55;4.35;;;0.90;;
69459;SDS011;57182;55.712;37.612;2022-09-09T07:57:24;2.13;;;1.20;;
69459;SDS011;57182;55.712;37.612;2022-09-09T07:59:54;1.33;;;1.23;;
69459;SDS011;57182;55.712;37.612;2022-09-09T08:02:24;2.17;;;0.77;;
69459;SDS011;57182;55.712;37.612;2022-09-09T08:04:52;1.83;;;1.02;;
69459;SDS011;57182;55.712;37.612;2022-09-09T08:07:21;4.25;;;1.35;;
69459;SDS011;57182;55.712;37.612;2022-09-09T08:09:53;2.00;;;0.70;;
69459;SDS011;57182;55.712;37.612;2022-09-09T08:12:27;2.00;;;0.82;;
69459;SDS011;57182;55.712;37.612;2022-09-09T08:14:55;5.15;;;1.40;;
69459;SDS011;57182;55.712;37.612;2022-09-09T08:17:29;1.98;;;0.95;;
69459;SDS011;57182;55.712;37.612;2022-09-09T08:20:04;1.73;;;0.98;;
69459;SDS011;57182;55.712;37.612;2022-09-09T08:22:32;3.67;;;1.00;;
69459;SDS011;57182;55.712;37.612;2022-09-09T08:25:01;4.72;;;0.82;;
69459;SDS011;57182;55.712;37.612;2022-09-09T08:27:30;1.70;;;0.80;;
69459;SDS011;57182;55.712;37.612;2022-09-09T08:30:00;2.88;;;0.70;;
69459;SDS011;57182;55.712;37.612;2022-09-09T08:32:36;2.55;;;0.80;;
69459;SDS011;57182;55.712;37.612;2022-09-09T08:35:07;1.85;;;0.90;;
69459;SDS011;57182;55.712;37.612;2022-09-09T08:37:37;5.00;;;0.90;;
69459;SDS011;57182;55.712;37.612;2022-09-09T08:40:19;1.65;;;0.90;;
69459;SDS011;57182;55.712;37.612;2022-09-09T08:42:54;1.60;;;0.82;;
69459;SDS011;57182;55.712;37.612;2022-09-09T08:48:29;1.33;;;0.73;;
69459;SDS011;57182;55.712;37.612;2022-09-09T08:51:11;2.88;;;1.15;;
69459;SDS011;57182;55.712;37.612;2022-09-09T08:53:42;2.83;;;0.90;;
69459;SDS011;57182;55.712;37.612;2022-09-09T08:56:16;2.33;;;0.80;;
69459;SDS011;57182;55.712;37.612;2022-09-09T09:07:26;13.35;;;6.05;;
69459;SDS011;57182;55.712;37.612;2022-09-09T09:10:23;5.30;;;3.35;;
69459;SDS011;57182;55.712;37.612;2022-09-09T09:18:51;1.83;;;0.80;;
69459;SDS011;57182;55.712;37.612;2022-09-09T09:21:41;5.10;;;0.93;;
69459;SDS011;57182;55.712;37.612;2022-09-09T09:24:18;4.40;;;1.17;;
69459;SDS011;57182;55.712;37.612;2022-09-09T09:26:49;2.92;;;0.90;;
69459;SDS011;57182;55.712;37.612;2022-09-09T09:29:26;6.60;;;0.85;;
69459;SDS011;57182;55.712;37.612;2022-09-09T09:31:56;4.43;;;1.13;;
69459;SDS011;57182;55.712;37.612;2022-09-09T09:34:29;4.70;;;0.93;;
69459;SDS011;57182;55.712;37.612;2022-09-09T09:36:57;4.60;;;1.38;;
69459;SDS011;57182;55.712;37.612;2022-09-09T09:39:30;6.43;;;1.10;;
69459;SDS011;57182;55.712;37.612;2022-09-09T09:42:25;6.38;;;0.80;;
69459;SDS011;57182;55.712;37.612;2022-09-09T09:44:56;1.17;;;0.75;;
69459;SDS011;57182;55.712;37.612;2022-09-09T09:47:44;1.25;;;0.82;;
69459;SDS011;57182;55.712;37.612;2022-09-09T09:50:18;2.22;;;0.85;;
69459;SDS011;57182;55.712;37.612;2022-09-09T09:52:54;5.05;;;1.10;;
69459;SDS011;57182;55.712;37.612;2022-09-09T09:55:34;5.00;;;1.10;;
69459;SDS011;57182;55.712;37.612;2022-09-09T09:58:06;2.22;;;0.90;;
69459;SDS011;57182;55.712;37.612;2022-09-09T10:00:48;2.97;;;0.95;;
69459;SDS011;57182;55.712;37.612;2022-09-09T10:05:59;4.50;;;1.00;;
69459;SDS011;57182;55.712;37.612;2022-09-09T10:08:27;1.35;;;0.80;;
69459;SDS011;57182;55.712;37.612;2022-09-09T10:13:49;1.63;;;1.13;;
69459;SDS011;57182;55.712;37.612;2022-09-09T10:16:49;0.95;;;0.80;;
69459;SDS011;57182;55.712;37.612;2022-09-09T10:19:33;1.15;;;0.80;;
69459;SDS011;57182;55.712;37.612;2022-09-09T10:25:11;5.07;;;0.90;;
69459;SDS011;57182;55.712;37.612;2022-09-09T10:27:49;5.07;;;0.90;;
69459;SDS011;57182;55.712;37.612;2022-09-09T10:33:20;4.03;;;1.00;;
69459;SDS011;57182;55.712;37.612;2022-09-09T10:36:25;3.35;;;0.93;;
69459;SDS011;57182;55.712;37.612;2022-09-09T10:42:15;1.92;;;1.00;;
69459;SDS011;57182;55.712;37.612;2022-09-09T10:44:53;2.53;;;0.88;;
69459;SDS011;57182;55.712;37.612;2022-09-09T10:53:34;7.22;;;1.13;;
69459;SDS011;57182;55.712;37.612;2022-09-09T10:56:15;7.45;;;0.95;;
69459;SDS011;57182;55.712;37.612;2022-09-09T11:01:41;4.85;;;0.90;;
69459;SDS011;57182;55.712;37.612;2022-09-09T11:06:47;2.67;;;1.30;;
69459;SDS011;57182;55.712;37.612;2022-09-09T11:09:22;3.28;;;1.13;;
69459;SDS011;57182;55.712;37.612;2022-09-09T11:11:56;2.60;;;1.00;;
69459;SDS011;57182;55.712;37.612;2022-09-09T11:14:29;5.70;;;1.00;;
69459;SDS011;57182;55.712;37.612;2022-09-09T11:17:10;5.75;;;1.08;;
69459;SDS011;57182;55.712;37.612;2022-09-09T11:19:39;5.85;;;1.17;;
69459;SDS011;57182;55.712;37.612;2022-09-09T11:22:14;3.80;;;1.10;;
69459;SDS011;57182;55.712;37.612;2022-09-09T11:24:51;1.52;;;0.77;;
69459;SDS011;57182;55.712;37.612;2022-09-09T11:27:24;13.15;;;1.10;;
69459;SDS011;57182;55.712;37.612;2022-09-09T11:38:25;1.65;;;0.80;;
69459;SDS011;57182;55.712;37.612;2022-09-09T11:41:01;8.25;;;3.78;;
69459;SDS011;57182;55.712;37.612;2022-09-09T11:43:38;5.10;;;2.35;;
69459;SDS011;57182;55.712;37.612;2022-09-09T11:46:10;4.20;;;1.08;;
69459;SDS011;57182;55.712;37.612;2022-09-09T11:56:32;5.47;;;2.53;;
69459;SDS011;57182;55.712;37.612;2022-09-09T11:59:24;3.75;;;2.05;;
69459;SDS011;57182;55.712;37.612;2022-09-09T12:01:58;2.20;;;1.50;;
69459;SDS011;57182;55.712;37.612;2022-09-09T12:04:39;6.82;;;1.50;;
69459;SDS011;57182;55.712;37.612;2022-09-09T12:09:59;4.07;;;1.00;;
69459;SDS011;57182;55.712;37.612;2022-09-09T12:12:51;3.47;;;1.50;;
69459;SDS011;57182;55.712;37.612;2022-09-09T12:15:26;9.98;;;1.75;;
69459;SDS011;57182;55.712;37.612;2022-09-09T12:17:57;5.63;;;2.20;;
69459;SDS011;57182;55.712;37.612;2022-09-09T12:23:06;9.93;;;1.52;;
69459;SDS011;57182;55.712;37.612;2022-09-09T12:34:47;3.88;;;1.10;;
69459;SDS011;57182;55.712;37.612;2022-09-09T12:37:24;5.72;;;1.20;;
69459;SDS011;57182;55.712;37.612;2022-09-09T12:42:54;3.72;;;1.10;;
69459;SDS011;57182;55.712;37.612;2022-09-09T12:45:28;3.63;;;1.10;;
69459;SDS011;57182;55.712;37.612;2022-09-09T12:48:01;5.50;;;1.17;;
69459;SDS011;57182;55.712;37.612;2022-09-09T12:50:37;3.67;;;1.35;;
69459;SDS011;57182;55.712;37.612;2022-09-09T12:53:12;3.03;;;0.95;;
69459;SDS011;57182;55.712;37.612;2022-09-09T12:55:55;1.95;;;1.10;;
69459;SDS011;57182;55.712;37.612;2022-09-09T12:58:26;2.63;;;1.45;;
69459;SDS011;57182;55.712;37.612;2022-09-09T13:01:00;2.58;;;1.13;;
69459;SDS011;57182;55.712;37.612;2022-09-09T13:03:32;5.35;;;2.08;;
69459;SDS011;57182;55.712;37.612;2022-09-09T13:06:10;4.75;;;1.65;;
69459;SDS011;57182;55.712;37.612;2022-09-09T13:08:41;3.85;;;1.63;;
69459;SDS011;57182;55.712;37.612;2022-09-09T13:11:10;5.13;;;1.50;;
69459;SDS011;57182;55.712;37.612;2022-09-09T13:13:49;3.90;;;2.20;;
69459;SDS011;57182;55.712;37.612;2022-09-09T13:16:22;1.70;;;0.80;;
69459;SDS011;57182;55.712;37.612;2022-09-09T13:18:52;1.35;;;0.82;;
69459;SDS011;57182;55.712;37.612;2022-09-09T13:21:35;3.70;;;0.80;;
69459;SDS011;57182;55.712;37.612;2022-09-09T13:24:23;3.13;;;0.82;;
69459;SDS011;57182;55.712;37.612;2022-09-09T13:26:59;6.72;;;1.00;;
69459;SDS011;57182;55.712;37.612;2022-09-09T13:29:32;1.67;;;0.80;;
69459;SDS011;57182;55.712;37.612;2022-09-09T13:32:04;5.05;;;0.98;;
69459;SDS011;57182;55.712;37.612;2022-09-09T13:34:33;3.85;;;1.35;;
69459;SDS011;57182;55.712;37.612;2022-09-09T13:37:03;3.80;;;1.15;;
69459;SDS011;57182;55.712;37.612;2022-09-09T13:39:52;13.93;;;1.85;;
69459;SDS011;57182;55.712;37.612;2022-09-09T13:42:28;4.70;;;0.98;;
69459;SDS011;57182;55.712;37.612;2022-09-09T13:45:01;2.60;;;1.00;;
69459;SDS011;57182;55.712;37.612;2022-09-09T13:47:34;1.25;;;0.98;;
69459;SDS011;57182;55.712;37.612;2022-09-09T13:50:10;0.98;;;0.77;;
69459;SDS011;57182;55.712;37.612;2022-09-09T13:52:50;9.32;;;0.80;;
69459;SDS011;57182;55.712;37.612;2022-09-09T13:55:20;4.03;;;1.30;;
69459;SDS011;57182;55.712;37.612;2022-09-09T13:58:00;6.78;;;1.05;;
69459;SDS011;57182;55.712;37.612;2022-09-09T14:00:29;2.80;;;0.80;;
69459;SDS011;57182;55.712;37.612;2022-09-09T14:02:58;2.15;;;1.10;;
69459;SDS011;57182;55.712;37.612;2022-09-09T14:05:31;2.17;;;0.95;;
69459;SDS011;57182;55.712;37.612;2022-09-09T14:08:05;4.40;;;1.23;;
69459;SDS011;57182;55.712;37.612;2022-09-09T14:10:35;2.72;;;0.82;;
69459;SDS011;57182;55.712;37.612;2022-09-09T14:13:03;4.55;;;2.20;;
69459;SDS011;57182;55.712;37.612;2022-09-09T14:15:31;6.43;;;1.95;;
69459;SDS011;57182;55.712;37.612;2022-09-09T14:17:58;1.88;;;1.10;;
69459;SDS011;57182;55.712;37.612;2022-09-09T14:20:26;3.83;;;2.10;;
69459;SDS011;57182;55.712;37.612;2022-09-09T14:22:53;6.95;;;1.50;;
69459;SDS011;57182;55.712;37.612;2022-09-09T14:25:20;3.90;;;1.30;;
69459;SDS011;57182;55.712;37.612;2022-09-09T14:27:48;9.77;;;2.80;;
69459;SDS011;57182;55.712;37.612;2022-09-09T14:30:17;4.43;;;1.50;;
69459;SDS011;57182;55.712;37.612;2022-09-09T14:32:45;1.95;;;1.30;;
69459;SDS011;57182;55.712;37.612;2022-09-09T14:35:13;3.08;;;1.63;;
69459;SDS011;57182;55.712;37.612;2022-09-09T14:37:40;4.10;;;1.40;;
69459;SDS011;57182;55.712;37.612;2022-09-09T14:40:08;2.13;;;0.60;;
69459;SDS011;57182;55.712;37.612;2022-09-09T14:42:36;5.32;;;1.33;;
69459;SDS011;57182;55.712;37.612;2022-09-09T14:45:03;3.85;;;1.17;;
69459;SDS011;57182;55.712;37.612;2022-09-09T14:47:32;2.45;;;1.60;;
69459;SDS011;57182;55.712;37.612;2022-09-09T14:50:00;1.88;;;1.27;;
69459;SDS011;57182;55.712;37.612;2022-09-09T14:52:34;9.55;;;1.55;;
69459;SDS011;57182;55.712;37.612;2022-09-09T14:55:01;2.65;;;1.48;;
69459;SDS011;57182;55.712;37.612;2022-09-09T14:57:28;10.73;;;1.70;;
69459;SDS011;57182;55.712;37.612;2022-09-09T14:59:56;5.28;;;1.30;;
69459;SDS011;57182;55.712;37.612;2022-09-09T15:02:25;6.45;;;1.80;;
69459;SDS011;57182;55.712;37.612;2022-09-09T15:04:53;25.58;;;2.28;;
69459;SDS011;57182;55.712;37.612;2022-09-09T15:07:24;12.07;;;2.08;;
69459;SDS011;57182;55.712;37.612;2022-09-09T15:09:54;8.38;;;1.77;;
69459;SDS011;57182;55.712;37.612;2022-09-09T15:12:22;3.55;;;1.73;;
69459;SDS011;57182;55.712;37.612;2022-09-09T15:14:50;9.57;;;1.40;;
69459;SDS011;57182;55.712;37.612;2022-09-09T15:17:21;1.58;;;1.40;;
69459;SDS011;57182;55.712;37.612;2022-09-09T15:19:49;13.13;;;2.45;;
69459;SDS011;57182;55.712;37.612;2022-09-09T15:22:18;4.07;;;1.60;;
69459;SDS011;57182;55.712;37.612;2022-09-09T15:24:46;5.25;;;1.70;;
69459;SDS011;57182;55.712;37.612;2022-09-09T15:27:15;9.00;;;2.28;;
69459;SDS011;57182;55.712;37.612;2022-09-09T15:29:44;4.85;;;2.00;;
69459;SDS011;57182;55.712;37.612;2022-09-09T15:32:11;6.80;;;2.47;;
69459;SDS011;57182;55.712;37.612;2022-09-09T15:34:39;5.85;;;2.03;;
69459;SDS011;57182;55.712;37.612;2022-09-09T15:37:11;3.58;;;2.05;;
69459;SDS011;57182;55.712;37.612;2022-09-09T15:39:42;4.45;;;2.22;;
69459;SDS011;57182;55.712;37.612;2022-09-09T15:42:10;4.28;;;1.80;;
69459;SDS011;57182;55.712;37.612;2022-09-09T15:44:40;2.80;;;1.92;;
69459;SDS011;57182;55.712;37.612;2022-09-09T15:47:17;3.40;;;2.20;;
69459;SDS011;57182;55.712;37.612;2022-09-09T15:49:59;2.47;;;1.70;;
69459;SDS011;57182;55.712;37.612;2022-09-09T15:52:29;3.75;;;1.15;;
69459;SDS011;57182;55.712;37.612;2022-09-09T15:55:07;3.95;;;1.50;;
69459;SDS011;57182;55.712;37.612;2022-09-09T15:57:49;2.53;;;2.22;;
69459;SDS011;57182;55.712;37.612;2022-09-09T16:00:19;3.63;;;1.70;;
69459;SDS011;57182;55.712;37.612;2022-09-09T16:02:53;5.03;;;1.92;;
69459;SDS011;57182;55.712;37.612;2022-09-09T16:05:25;10.30;;;2.00;;
69459;SDS011;57182;55.712;37.612;2022-09-09T16:08:06;9.82;;;1.90;;
69459;SDS011;57182;55.712;37.612;2022-09-09T16:10:36;10.45;;;2.30;;
69459;SDS011;57182;55.712;37.612;2022-09-09T16:13:09;9.73;;;2.17;;
69459;SDS011;57182;55.712;37.612;2022-09-09T16:15:53;4.03;;;1.70;;
69459;SDS011;57182;55.712;37.612;2022-09-09T16:18:34;10.23;;;2.30;;
69459;SDS011;57182;55.712;37.612;2022-09-09T16:21:27;8.82;;;2.08;;
69459;SDS011;57182;55.712;37.612;2022-09-09T16:23:59;2.92;;;2.03;;
69459;SDS011;57182;55.712;37.612;2022-09-09T16:26:48;8.02;;;2.67;;
69459;SDS011;57182;55.712;37.612;2022-09-09T16:29:25;10.38;;;1.90;;
69459;SDS011;57182;55.712;37.612;2022-09-09T16:32:19;7.90;;;1.95;;
69459;SDS011;57182;55.712;37.612;2022-09-09T16:34:50;4.78;;;2.22;;
69459;SDS011;57182;55.712;37.612;2022-09-09T16:37:35;4.68;;;2.00;;
69459;SDS011;57182;55.712;37.612;2022-09-09T16:40:40;8.60;;;2.35;;
69459;SDS011;57182;55.712;37.612;2022-09-09T16:43:11;4.40;;;2.30;;
69459;SDS011;57182;55.712;37.612;2022-09-09T16:45:49;4.35;;;2.50;;
69459;SDS011;57182;55.712;37.612;2022-09-09T16:48:21;9.57;;;5.22;;
69459;SDS011;57182;55.712;37.612;2022-09-09T16:50:52;5.47;;;2.88;;
69459;SDS011;57182;55.712;37.612;2022-09-09T16:53:34;4.72;;;2.40;;
69459;SDS011;57182;55.712;37.612;2022-09-09T16:56:09;9.48;;;3.75;;
69459;SDS011;57182;55.712;37.612;2022-09-09T17:03:11;12.80;;;5.03;;
69459;SDS011;57182;55.712;37.612;2022-09-09T17:05:49;5.15;;;2.75;;
69459;SDS011;57182;55.712;37.612;2022-09-09T17:08:34;12.20;;;3.80;;
69459;SDS011;57182;55.712;37.612;2022-09-09T17:11:11;12.00;;;4.00;;
69459;SDS011;57182;55.712;37.612;2022-09-09T17:13:41;9.77;;;5.47;;
69459;SDS011;57182;55.712;37.612;2022-09-09T17:16:10;9.50;;;3.22;;
69459;SDS011;57182;55.712;37.612;2022-09-09T17:18:43;10.55;;;3.15;;
69459;SDS011;57182;55.712;37.612;2022-09-09T17:21:14;11.80;;;2.97;;
69459;SDS011;57182;55.712;37.612;2022-09-09T17:23:43;8.85;;;3.20;;
69459;SDS011;57182;55.712;37.612;2022-09-09T17:26:13;10.85;;;3.65;;
69459;SDS011;57182;55.712;37.612;2022-09-09T17:28:42;7.80;;;3.58;;
69459;SDS011;57182;55.712;37.612;2022-09-09T17:31:10;12.05;;;3.85;;
69459;SDS011;57182;55.712;37.612;2022-09-09T17:33:40;10.85;;;3.38;;
69459;SDS011;57182;55.712;37.612;2022-09-09T17:36:11;24.52;;;5.00;;
69459;SDS011;57182;55.712;37.612;2022-09-09T17:38:41;15.15;;;4.10;;
69459;SDS011;57182;55.712;37.612;2022-09-09T17:41:15;13.38;;;3.92;;
69459;SDS011;57182;55.712;37.612;2022-09-09T17:43:47;12.32;;;4.38;;
69459;SDS011;57182;55.712;37.612;2022-09-09T17:46:17;10.50;;;3.85;;
69459;SDS011;57182;55.712;37.612;2022-09-09T17:48:51;36.13;;;9.50;;
69459;SDS011;57182;55.712;37.612;2022-09-09T17:51:23;11.20;;;4.30;;
69459;SDS011;57182;55.712;37.612;2022-09-09T17:53:53;70.53;;;7.53;;
69459;SDS011;57182;55.712;37.612;2022-09-09T17:56:22;10.60;;;4.32;;